Time;durP1;ratioP1;P1;durP2;ratioP2;P2;SDS_P1;SDS_P2;PMS_P1;PMS_P2;Temp;Humidity;BMP_temperature;BMP_pressure;BME280_temperature;BME280_humidity;BME280_pressure;Samples;Min_cycle;Max_cycle;Signal;HPM_P1;HPM_P2
2021/01/19 00:01:24;;;;;;;5.07;2.80;;;;;;;-1.44;80.60;96118.78;5054296;28;20209;-76
2021/01/19 00:03:50;;;;;;;4.87;2.43;;;;;;;-1.44;80.59;96109.41;5054293;28;20181;-75
2021/01/19 00:06:16;;;;;;;4.77;2.23;;;;;;;-1.34;80.52;96112.41;5054382;28;20186;-75
2021/01/19 00:08:41;;;;;;;5.00;3.10;;;;;;;-1.42;80.67;96109.34;5053823;28;20278;-75
2021/01/19 00:11:06;;;;;;;6.43;2.30;;;;;;;-1.47;80.57;96107.00;5037561;28;20178;-74
2021/01/19 00:13:32;;;;;;;4.77;2.30;;;;;;;-1.48;80.72;96104.50;5054133;28;20192;-75
2021/01/19 00:15:57;;;;;;;4.50;2.83;;;;;;;-1.49;80.61;96113.88;5072024;28;20183;-75
2021/01/19 00:18:23;;;;;;;3.77;2.40;;;;;;;-1.48;80.05;96105.34;5071771;28;20196;-75
2021/01/19 00:20:48;;;;;;;2.57;2.23;;;;;;;-1.48;80.16;96110.44;5071793;28;20183;-75
2021/01/19 00:23:13;;;;;;;5.43;3.00;;;;;;;-1.48;80.64;96105.34;5053997;28;20279;-75
2021/01/19 00:25:40;;;;;;;4.80;2.50;;;;;;;-1.47;80.68;96109.53;5071884;28;20179;-75
2021/01/19 00:28:05;;;;;;;5.67;2.43;;;;;;;-1.49;80.63;96103.69;5053971;28;20682;-74
2021/01/19 00:30:30;;;;;;;3.40;2.53;;;;;;;-1.55;80.62;96101.38;5053715;28;20187;-75
2021/01/19 00:32:56;;;;;;;5.00;2.67;;;;;;;-1.58;80.48;96098.97;5037060;28;20591;-75
2021/01/19 00:35:21;;;;;;;4.13;2.80;;;;;;;-1.60;81.10;96100.72;5071780;28;20592;-75
2021/01/19 00:37:46;;;;;;;6.47;2.77;;;;;;;-1.59;80.41;96099.00;5071695;28;20210;-75
2021/01/19 00:40:12;;;;;;;8.50;3.30;;;;;;;-1.62;80.41;96087.22;5053553;28;20267;-75
2021/01/19 00:42:38;;;;;;;9.40;3.40;;;;;;;-1.59;80.09;96088.81;5071658;28;20184;-75
2021/01/19 00:45:04;;;;;;;3.13;2.37;;;;;;;-1.61;79.52;96091.41;5053675;28;20738;-72
2021/01/19 00:47:29;;;;;;;7.10;2.10;;;;;;;-1.59;79.26;96087.13;5053443;28;20561;-75
2021/01/19 00:49:54;;;;;;;2.43;1.73;;;;;;;-1.53;78.71;96081.75;5071426;28;20176;-76
2021/01/19 00:52:20;;;;;;;3.33;2.07;;;;;;;-1.51;78.46;96085.06;5071585;28;20187;-75
2021/01/19 00:54:45;;;;;;;4.53;2.00;;;;;;;-1.52;78.64;96082.59;5053523;28;20215;-75
2021/01/19 00:57:10;;;;;;;6.87;3.40;;;;;;;-1.57;79.44;96074.31;5071532;28;20219;-76
2021/01/19 00:59:36;;;;;;;4.33;3.07;;;;;;;-1.67;79.79;96073.03;5053313;28;20216;-75
2021/01/19 01:02:02;;;;;;;4.63;3.63;;;;;;;-1.69;80.74;96067.16;5053562;28;20187;-75
2021/01/19 01:04:27;;;;;;;8.50;3.90;;;;;;;-1.77;80.79;96068.31;5071417;28;20184;-73
2021/01/19 01:06:53;;;;;;;5.03;3.30;;;;;;;-1.80;80.85;96063.31;5053767;28;20573;-77
2021/01/19 01:09:19;;;;;;;9.43;3.83;;;;;;;-1.92;81.71;96068.06;5071041;28;20791;-73
2021/01/19 01:11:44;;;;;;;5.07;3.50;;;;;;;-1.93;81.76;96074.03;5072833;28;20175;-73
2021/01/19 01:14:11;;;;;;;9.57;4.83;;;;;;;-1.93;82.02;96077.41;5057456;28;20204;-73
2021/01/19 01:16:36;;;;;;;10.60;4.00;;;;;;;-1.94;81.97;96075.75;5075241;28;20192;-73
2021/01/19 01:19:03;;;;;;;6.13;3.90;;;;;;;-1.92;81.72;96075.69;5057069;28;20207;-73
2021/01/19 01:21:28;;;;;;;9.23;4.03;;;;;;;-1.95;82.16;96073.25;5075265;28;20191;-73
2021/01/19 01:23:54;;;;;;;4.43;3.50;;;;;;;-1.85;82.07;96059.31;5075299;28;20175;-73
2021/01/19 01:26:20;;;;;;;5.87;3.40;;;;;;;-1.86;81.89;96060.16;5057354;28;20183;-74
2021/01/19 01:28:47;;;;;;;4.53;3.23;;;;;;;-1.91;81.93;96054.44;5057078;28;20195;-74
2021/01/19 01:31:12;;;;;;;4.63;3.13;;;;;;;-1.90;82.13;96053.56;5057045;28;20185;-73
2021/01/19 01:33:38;;;;;;;3.60;2.70;;;;;;;-1.89;82.24;96057.75;5057068;28;20291;-73
2021/01/19 01:36:03;;;;;;;5.93;3.27;;;;;;;-1.89;82.52;96052.66;5057067;28;20202;-73
2021/01/19 01:38:29;;;;;;;5.93;2.93;;;;;;;-1.87;81.69;96040.69;5056904;28;20283;-74
2021/01/19 01:40:54;;;;;;;3.23;2.27;;;;;;;-1.88;81.28;96039.03;5074841;28;20705;-73
2021/01/19 01:43:19;;;;;;;2.23;2.03;;;;;;;-1.79;80.58;96038.69;5056930;28;20175;-73
2021/01/19 01:45:44;;;;;;;2.93;2.17;;;;;;;-1.72;79.90;96043.47;5074877;28;20186;-73
2021/01/19 01:48:10;;;;;;;4.33;2.03;;;;;;;-1.73;79.47;96038.44;5056582;28;20601;-74
2021/01/19 01:50:39;;;;;;;2.43;1.13;;;;;;;-1.70;78.92;96033.22;5056613;28;20238;-73
2021/01/19 01:53:05;;;;;;;2.23;1.67;;;;;;;-1.66;78.03;96021.22;5056710;28;20238;-75
2021/01/19 01:55:30;;;;;;;3.43;1.47;;;;;;;-1.63;77.62;96028.72;5056779;28;20179;-74
2021/01/19 01:57:56;;;;;;;1.93;1.83;;;;;;;-1.60;78.27;96020.94;5056663;28;20205;-74
2021/01/19 02:00:21;;;;;;;6.07;1.87;;;;;;;-1.53;76.86;96019.81;5056323;28;20265;-74
2021/01/19 02:02:48;;;;;;;3.20;1.80;;;;;;;-1.53;77.18;96018.09;5056425;28;20190;-74
2021/01/19 02:05:14;;;;;;;4.30;1.90;;;;;;;-1.56;77.24;96013.13;5036675;28;20649;-74
2021/01/19 02:08:06;;;;;;;2.57;1.60;;;;;;;-1.57;77.13;96014.00;5019888;28;20264;-74
2021/01/19 02:10:42;;;;;;;1.73;1.47;;;;;;;-1.50;76.66;95999.31;5054036;28;20191;-74
2021/01/19 02:13:38;;;;;;;4.07;1.83;;;;;;;-1.57;77.30;95998.75;5036118;28;20267;-74
2021/01/19 02:16:28;;;;;;;4.70;1.70;;;;;;;-1.50;76.87;95991.69;5054247;28;20185;-74
2021/01/19 02:18:59;;;;;;;2.70;1.37;;;;;;;-1.51;76.78;95988.28;5053901;28;20307;-74
2021/01/19 02:21:36;;;;;;;5.30;1.53;;;;;;;-1.58;77.53;95981.81;5054005;28;20674;-74
2021/01/19 02:24:26;;;;;;;7.47;1.80;;;;;;;-1.57;76.41;95980.91;5053882;28;20169;-74
2021/01/19 02:27:59;;;;;;;3.80;1.90;;;;;;;-1.58;76.88;95986.06;5036183;28;20551;-74
2021/01/19 02:30:40;;;;;;;4.50;1.63;;;;;;;-1.60;77.52;95980.19;4940844;28;20559;-73
2021/01/19 02:33:47;;;;;;;4.50;1.93;;;;;;;-1.62;77.66;95974.34;4992321;28;20249;-73
2021/01/19 02:36:24;;;;;;;3.67;1.83;;;;;;;-1.61;77.22;95968.34;4953515;28;20195;-73
2021/01/19 02:38:56;;;;;;;5.63;2.63;;;;;;;-1.58;77.22;95961.44;4952975;29;20488;-74
2021/01/19 02:41:22;;;;;;;6.13;1.90;;;;;;;-1.62;77.46;95964.16;4952851;28;20333;-73
2021/01/19 02:43:56;;;;;;;4.40;1.90;;;;;;;-1.62;77.60;95959.88;4953462;28;20251;-74
2021/01/19 02:46:25;;;;;;;5.27;1.70;;;;;;;-1.62;77.63;95954.78;4936915;29;20816;-73
2021/01/19 02:48:52;;;;;;;1.70;1.60;;;;;;;-1.59;77.08;95958.91;4952984;28;20299;-73
2021/01/19 02:51:18;;;;;;;4.33;2.10;;;;;;;-1.60;77.03;95958.09;4953317;28;20287;-73
2021/01/19 02:53:44;;;;;;;3.80;1.97;;;;;;;-1.58;76.87;95946.16;4953210;29;20314;-73
2021/01/19 02:56:15;;;;;;;2.77;2.03;;;;;;;-1.57;76.98;95937.63;4953121;28;20191;-73
2021/01/19 02:59:13;;;;;;;2.83;1.90;;;;;;;-1.58;77.14;95937.69;4952828;28;20208;-75
2021/01/19 03:02:01;;;;;;;3.60;1.80;;;;;;;-1.60;76.76;95932.63;4973512;28;20346;-73
2021/01/19 03:04:29;;;;;;;3.20;1.60;;;;;;;-1.58;76.98;95935.97;4975583;28;20277;-74
2021/01/19 03:06:55;;;;;;;3.47;2.07;;;;;;;-1.58;77.01;95937.69;4975449;28;20281;-74
2021/01/19 03:09:21;;;;;;;2.77;1.80;;;;;;;-1.62;77.65;95942.06;4986936;28;20311;-74
2021/01/19 03:11:48;;;;;;;4.33;1.80;;;;;;;-1.63;77.02;95937.84;5035341;28;20263;-74
2021/01/19 03:14:13;;;;;;;5.17;1.77;;;;;;;-1.59;77.09;95931.75;5035271;28;20204;-74
2021/01/19 03:16:38;;;;;;;4.03;1.90;;;;;;;-1.57;76.23;95929.97;5035400;28;20180;-73
2021/01/19 03:19:04;;;;;;;3.37;2.17;;;;;;;-1.59;76.92;95924.13;5051514;28;20204;-73
2021/01/19 03:21:29;;;;;;;5.53;2.30;;;;;;;-1.62;77.63;95924.22;5018363;28;20220;-74
2021/01/19 03:23:55;;;;;;;3.53;2.03;;;;;;;-1.61;77.65;95925.88;5035189;28;20203;-74
2021/01/19 03:26:20;;;;;;;2.97;2.20;;;;;;;-1.68;78.20;95919.38;5052933;28;20181;-74
2021/01/19 03:28:45;;;;;;;3.27;2.00;;;;;;;-1.70;77.47;95911.00;5034759;28;20200;-74
2021/01/19 03:31:11;;;;;;;3.30;2.17;;;;;;;-1.70;77.71;95895.72;5052871;28;20690;-74
2021/01/19 03:33:36;;;;;;;3.70;2.07;;;;;;;-1.75;77.61;95892.56;5052292;28;20992;-74
2021/01/19 03:36:01;;;;;;;2.73;1.97;;;;;;;-1.77;77.38;95900.25;5052318;28;20238;-74
2021/01/19 03:38:27;;;;;;;2.83;1.97;;;;;;;-1.80;77.57;95889.34;5018233;28;20204;-74
2021/01/19 03:40:52;;;;;;;3.70;2.30;;;;;;;-1.90;78.00;95891.47;5052516;28;20177;-74
2021/01/19 03:43:17;;;;;;;3.80;2.07;;;;;;;-1.94;78.18;95891.66;5034906;28;20180;-74
2021/01/19 03:45:43;;;;;;;4.17;2.10;;;;;;;-2.00;78.67;95887.66;5034814;28;20276;-73
2021/01/19 03:48:08;;;;;;;4.87;2.60;;;;;;;-2.02;78.90;95889.44;5034095;28;20199;-74
2021/01/19 03:50:34;;;;;;;4.13;2.90;;;;;;;-2.03;78.76;95886.06;5052234;28;20186;-75
2021/01/19 03:52:59;;;;;;;3.67;2.17;;;;;;;-2.11;79.37;95887.28;5052342;28;20178;-73
2021/01/19 03:55:28;;;;;;;5.30;2.67;;;;;;;-2.05;79.76;95885.28;5052286;28;20208;-73
2021/01/19 03:57:53;;;;;;;5.70;2.67;;;;;;;-2.08;79.32;95875.25;5034497;28;20684;-73
2021/01/19 04:00:19;;;;;;;4.17;2.63;;;;;;;-2.04;79.88;95876.75;5052153;28;20186;-74
2021/01/19 04:02:44;;;;;;;4.80;2.53;;;;;;;-1.98;80.00;95869.78;5052146;28;20176;-74
2021/01/19 04:05:10;;;;;;;4.57;2.43;;;;;;;-2.07;80.00;95866.72;5052240;28;20555;-74
2021/01/19 04:07:39;;;;;;;4.57;2.97;;;;;;;-2.06;80.21;95868.38;5034361;28;20553;-73
2021/01/19 04:10:10;;;;;;;4.40;2.67;;;;;;;-2.06;80.21;95855.66;5033995;28;20208;-73
2021/01/19 04:12:35;;;;;;;4.57;2.80;;;;;;;-2.06;79.67;95857.38;5034352;28;20173;-73
2021/01/19 04:15:00;;;;;;;3.57;2.70;;;;;;;-2.05;80.08;95859.84;5051875;28;20268;-75
2021/01/19 04:17:26;;;;;;;5.80;3.20;;;;;;;-2.11;80.60;95854.19;5051921;28;20258;-74
2021/01/19 04:19:51;;;;;;;6.33;3.17;;;;;;;-2.14;80.67;95855.13;5051762;28;20256;-74
2021/01/19 04:22:16;;;;;;;5.83;3.13;;;;;;;-2.16;80.74;95844.19;5051937;28;20530;-73
2021/01/19 04:24:41;;;;;;;7.23;3.13;;;;;;;-2.25;80.72;95828.50;5034081;28;20181;-74
2021/01/19 04:27:07;;;;;;;4.90;3.10;;;;;;;-2.28;81.36;95839.63;5034034;28;20224;-74
2021/01/19 04:29:32;;;;;;;4.43;3.07;;;;;;;-2.24;81.59;95833.50;5033780;28;20210;-73
2021/01/19 04:31:57;;;;;;;7.33;3.03;;;;;;;-2.29;81.84;95837.97;5051726;28;20176;-73
2021/01/19 04:34:23;;;;;;;6.10;3.40;;;;;;;-2.32;81.51;95835.53;5051681;28;20207;-73
2021/01/19 04:36:48;;;;;;;5.43;3.07;;;;;;;-2.40;81.95;95838.38;5034001;28;20187;-74
2021/01/19 04:39:13;;;;;;;8.43;3.13;;;;;;;-2.38;82.30;95835.81;5033557;28;20628;-74
2021/01/19 04:41:40;;;;;;;6.33;2.93;;;;;;;-2.30;82.03;95833.75;5033723;28;20198;-73
2021/01/19 04:44:06;;;;;;;4.87;3.10;;;;;;;-2.27;81.96;95826.00;5033791;28;20171;-74
2021/01/19 04:46:32;;;;;;;7.97;3.17;;;;;;;-2.41;81.99;95829.13;5016845;28;20291;-73
2021/01/19 04:48:58;;;;;;;4.97;2.70;;;;;;;-2.37;82.40;95837.47;5033469;28;20233;-74
2021/01/19 04:51:26;;;;;;;5.50;3.17;;;;;;;-2.36;81.93;95828.94;5050229;28;20191;-74
2021/01/19 04:54:08;;;;;;;5.37;3.83;;;;;;;-2.35;81.59;95830.59;5051427;28;20186;-73
2021/01/19 04:56:38;;;;;;;5.63;3.17;;;;;;;-2.35;82.11;95821.25;5017071;28;20201;-74
2021/01/19 04:59:10;;;;;;;4.43;3.10;;;;;;;-2.40;82.26;95822.31;5033464;28;20196;-73
2021/01/19 05:01:36;;;;;;;7.30;3.50;;;;;;;-2.39;82.16;95814.59;5033682;28;20473;-73
2021/01/19 05:04:25;;;;;;;4.13;3.23;;;;;;;-2.40;82.47;95818.03;5051460;28;20196;-73
2021/01/19 05:07:12;;;;;;;5.53;3.07;;;;;;;-2.40;82.33;95812.97;5033372;28;20271;-74
2021/01/19 05:09:46;;;;;;;3.20;2.70;;;;;;;-2.44;81.79;95801.28;5050592;28;20213;-73
2021/01/19 05:12:18;;;;;;;3.97;2.70;;;;;;;-2.52;83.05;95793.13;5033475;28;20234;-74
2021/01/19 05:14:43;;;;;;;7.47;3.00;;;;;;;-2.40;82.11;95776.53;5033304;28;20200;-73
2021/01/19 05:17:09;;;;;;;6.57;3.80;;;;;;;-2.49;82.20;95776.91;5033172;28;20186;-73
2021/01/19 05:19:38;;;;;;;7.37;3.70;;;;;;;-2.54;82.81;95776.28;5066403;28;20208;-73
2021/01/19 05:22:04;;;;;;;6.53;3.23;;;;;;;-2.55;82.71;95778.00;5066726;28;20187;-74
2021/01/19 05:24:29;;;;;;;4.13;2.70;;;;;;;-2.46;82.52;95776.81;5033432;28;20176;-74
2021/01/19 05:26:55;;;;;;;7.60;3.33;;;;;;;-2.49;82.29;95777.72;5051249;28;20176;-75
2021/01/19 05:29:22;;;;;;;9.30;3.40;;;;;;;-2.50;82.23;95771.00;5050936;28;20581;-73
2021/01/19 05:31:50;;;;;;;3.77;2.90;;;;;;;-2.48;82.69;95755.66;5066481;28;20556;-74
2021/01/19 05:34:15;;;;;;;6.03;3.03;;;;;;;-2.59;82.09;95762.03;5050997;28;20234;-73
2021/01/19 05:36:48;;;;;;;3.93;3.23;;;;;;;-2.59;82.11;95756.13;5033407;28;20215;-73
2021/01/19 05:39:18;;;;;;;4.83;3.13;;;;;;;-2.69;82.37;95749.78;5032971;28;20209;-74
2021/01/19 05:41:48;;;;;;;4.87;2.97;;;;;;;-2.73;82.39;95754.16;5033298;28;20179;-75
2021/01/19 05:44:15;;;;;;;7.07;3.50;;;;;;;-2.72;82.67;95750.72;5033170;28;20537;-74
2021/01/19 05:46:42;;;;;;;6.73;3.83;;;;;;;-2.80;82.73;95742.59;5051217;28;20182;-73
2021/01/19 05:49:13;;;;;;;5.20;3.23;;;;;;;-2.83;82.45;95737.59;5032835;28;20194;-73
2021/01/19 05:51:42;;;;;;;5.83;3.10;;;;;;;-2.83;82.88;95735.06;5016620;28;20187;-73
2021/01/19 05:54:07;;;;;;;6.10;3.60;;;;;;;-2.82;82.48;95721.50;5033175;28;20584;-73
2021/01/19 05:56:33;;;;;;;6.40;3.60;;;;;;;-2.93;83.04;95716.00;5016535;28;20186;-74
2021/01/19 05:58:59;;;;;;;6.63;4.50;;;;;;;-2.87;83.02;95701.34;5035591;28;20200;-75
2021/01/19 06:01:30;;;;;;;5.67;3.73;;;;;;;-2.95;82.48;95702.53;5037660;28;20672;-75
2021/01/19 06:06:30;;;;;;;7.20;3.43;;;;;;;-2.93;82.77;95691.41;5016242;23;20239;-75
2021/01/19 06:09:01;;;;;;;7.47;3.30;;;;;;;-2.90;82.06;95700.66;4976136;28;20562;-73
2021/01/19 06:11:27;;;;;;;6.13;3.90;;;;;;;-3.01;82.88;95697.69;4996719;28;20249;-75
2021/01/19 06:13:53;;;;;;;3.60;3.07;;;;;;;-3.14;83.07;95693.13;4997012;28;20203;-74
2021/01/19 06:16:23;;;;;;;4.67;3.60;;;;;;;-3.15;82.91;95690.66;4999923;28;20245;-73
2021/01/19 06:18:49;;;;;;;8.47;3.50;;;;;;;-3.17;83.32;95692.44;5015943;28;20179;-74
2021/01/19 06:21:28;;;;;;;4.03;3.33;;;;;;;-3.17;83.14;95695.78;5016355;28;20683;-74
2021/01/19 06:23:53;;;;;;;4.63;3.40;;;;;;;-3.04;83.20;95687.66;5008422;28;20550;-73
2021/01/19 06:26:19;;;;;;;8.77;3.80;;;;;;;-3.19;83.02;95696.72;5013875;28;20235;-74
2021/01/19 06:28:44;;;;;;;6.33;3.60;;;;;;;-3.24;83.80;95698.63;5014309;28;20198;-75
2021/01/19 06:31:14;;;;;;;5.87;3.33;;;;;;;-3.13;82.52;95701.56;4996634;28;20825;-75
2021/01/19 06:33:41;;;;;;;5.30;3.77;;;;;;;-3.18;83.11;95703.44;4980192;28;20207;-74
2021/01/19 06:36:06;;;;;;;11.93;5.67;;;;;;;-3.23;82.99;95700.28;5013775;28;20199;-75
2021/01/19 06:38:32;;;;;;;12.23;5.93;;;;;;;-3.23;82.60;95693.50;4996554;28;20272;-75
2021/01/19 06:41:00;;;;;;;13.10;6.43;;;;;;;-3.16;82.78;95682.19;4980232;28;20187;-76
2021/01/19 06:43:34;;;;;;;14.47;6.43;;;;;;;-3.22;82.69;95682.44;4996408;28;20178;-75
2021/01/19 06:46:06;;;;;;;11.47;5.17;;;;;;;-3.32;83.47;95673.53;5013736;28;20546;-75
2021/01/19 06:48:31;;;;;;;9.97;5.87;;;;;;;-3.28;82.95;95676.78;4996416;28;20177;-74
2021/01/19 06:51:00;;;;;;;9.93;5.00;;;;;;;-3.25;83.11;95680.03;5014064;28;20203;-75
2021/01/19 06:53:33;;;;;;;6.60;4.33;;;;;;;-3.37;83.02;95675.41;4979644;28;20185;-74
2021/01/19 06:55:59;;;;;;;10.07;4.90;;;;;;;-3.36;83.37;95673.72;4996071;28;20188;-75
2021/01/19 06:58:46;;;;;;;7.07;5.07;;;;;;;-3.48;83.54;95670.78;5013812;28;20176;-75
2021/01/19 07:01:14;;;;;;;8.63;4.87;;;;;;;-3.48;83.47;95665.69;5010578;28;20188;-75
2021/01/19 07:03:41;;;;;;;6.30;3.70;;;;;;;-3.49;84.03;95661.50;4977841;28;20173;-75
2021/01/19 07:06:08;;;;;;;7.43;3.77;;;;;;;-3.37;84.01;95669.53;4993618;28;20199;-75
2021/01/19 07:09:02;;;;;;;6.00;3.40;;;;;;;-3.36;83.67;95651.69;4976084;28;20231;-74
2021/01/19 07:11:36;;;;;;;5.83;4.00;;;;;;;-3.36;83.25;95645.78;4993909;28;20214;-75
2021/01/19 07:14:10;;;;;;;4.83;3.73;;;;;;;-3.36;83.74;95645.78;4993885;28;20750;-75
2021/01/19 07:16:45;;;;;;;7.60;4.20;;;;;;;-3.41;82.81;95643.44;4971238;28;20205;-75
2021/01/19 07:19:17;;;;;;;5.20;3.93;;;;;;;-3.32;83.19;95640.53;4976335;28;20179;-75
2021/01/19 07:21:58;;;;;;;7.33;3.60;;;;;;;-3.36;83.74;95646.59;4976597;28;20581;-73
2021/01/19 07:24:25;;;;;;;4.57;3.23;;;;;;;-3.29;83.76;95645.47;4959994;28;20234;-73
2021/01/19 07:26:52;;;;;;;4.60;3.60;;;;;;;-3.24;83.29;95635.97;4993643;28;20179;-73
2021/01/19 07:29:17;;;;;;;7.60;3.60;;;;;;;-3.27;83.00;95633.56;4976120;28;20190;-75
2021/01/19 07:31:43;;;;;;;5.33;3.50;;;;;;;-3.24;83.46;95628.34;4976278;28;20197;-74
2021/01/19 07:34:09;;;;;;;4.93;3.53;;;;;;;-3.14;83.08;95631.34;4975831;28;20192;-74
2021/01/19 07:36:35;;;;;;;4.57;3.37;;;;;;;-3.08;82.65;95635.34;4975728;28;20285;-74
2021/01/19 07:39:11;;;;;;;9.73;3.20;;;;;;;-3.03;82.89;95641.03;4991960;28;20281;-73
2021/01/19 07:41:37;;;;;;;6.53;3.80;;;;;;;-2.95;82.34;95641.56;4992171;28;20702;-73
2021/01/19 07:44:03;;;;;;;5.30;3.73;;;;;;;-2.84;82.00;95639.38;4975830;28;20201;-73
2021/01/19 07:46:29;;;;;;;6.20;3.87;;;;;;;-2.87;81.42;95634.44;4992829;28;20278;-74
2021/01/19 07:49:08;;;;;;;5.17;3.80;;;;;;;-2.87;81.72;95630.19;4975843;28;20267;-74
2021/01/19 07:51:42;;;;;;;4.63;3.20;;;;;;;-2.76;81.63;95626.34;4975822;28;20175;-75
2021/01/19 07:54:11;;;;;;;6.33;3.33;;;;;;;-2.73;81.77;95618.63;4993039;28;20193;-74
2021/01/19 07:56:37;;;;;;;7.80;3.40;;;;;;;-2.69;81.46;95612.50;4975412;28;20199;-74
2021/01/19 07:59:03;;;;;;;7.20;3.50;;;;;;;-2.49;80.53;95616.72;4975783;28;20168;-73
2021/01/19 08:01:30;;;;;;;5.23;3.13;;;;;;;-2.40;80.24;95598.50;4975584;28;20179;-74
2021/01/19 08:04:07;;;;;;;5.77;3.37;;;;;;;-2.42;79.93;95595.19;4975481;28;20200;-73
2021/01/19 08:06:32;;;;;;;6.17;3.03;;;;;;;-2.33;80.05;95589.72;4997829;28;20273;-74
2021/01/19 08:09:16;;;;;;;6.80;3.47;;;;;;;-2.29;80.13;95586.16;5001733;28;20323;-73
2021/01/19 08:11:43;;;;;;;7.57;3.47;;;;;;;-2.22;78.95;95586.66;5010930;28;20209;-72
2021/01/19 08:14:09;;;;;;;7.77;3.00;;;;;;;-2.00;78.46;95583.09;4994485;28;20198;-73
2021/01/19 08:16:38;;;;;;;4.40;3.00;;;;;;;-1.87;77.43;95587.59;4994561;28;20184;-73
2021/01/19 08:19:12;;;;;;;6.53;3.40;;;;;;;-1.95;77.40;95575.22;4995173;28;20177;-73
2021/01/19 08:21:47;;;;;;;3.97;2.93;;;;;;;-1.85;77.66;95575.66;5011984;28;20585;-73
2021/01/19 08:24:13;;;;;;;6.37;3.30;;;;;;;-1.87;77.59;95570.59;4993914;28;20173;-75
2021/01/19 08:26:38;;;;;;;4.67;2.93;;;;;;;-1.70;77.25;95569.81;4994504;28;20207;-75
2021/01/19 08:29:05;;;;;;;7.13;2.83;;;;;;;-1.77;77.96;95573.53;5012103;28;20179;-73
2021/01/19 08:31:32;;;;;;;8.80;3.70;;;;;;;-1.82;77.70;95563.59;4994538;28;20204;-73
2021/01/19 08:34:07;;;;;;;8.83;4.10;;;;;;;-1.65;77.56;95565.34;4994447;28;20197;-73
2021/01/19 08:36:33;;;;;;;6.40;4.07;;;;;;;-1.69;76.87;95571.44;5011525;28;20199;-75
2021/01/19 08:39:00;;;;;;;10.63;5.60;;;;;;;-1.83;77.62;95574.66;4994474;28;20184;-75
2021/01/19 08:41:26;;;;;;;5.53;3.83;;;;;;;-1.74;77.73;95571.69;4994351;28;20182;-72
2021/01/19 08:43:52;;;;;;;13.17;6.10;;;;;;;-1.76;77.50;95570.13;4994412;28;20168;-76
2021/01/19 08:46:18;;;;;;;5.73;3.93;;;;;;;-1.79;77.47;95573.59;4994012;28;20202;-73
2021/01/19 08:48:43;;;;;;;5.43;4.00;;;;;;;-1.78;77.09;95577.81;4994301;28;20601;-73
2021/01/19 08:51:24;;;;;;;6.37;4.43;;;;;;;-1.74;77.23;95574.22;4994046;28;20186;-75
2021/01/19 08:53:49;;;;;;;6.17;4.33;;;;;;;-1.69;77.69;95563.81;4994235;28;20198;-73
2021/01/19 08:56:22;;;;;;;7.00;4.50;;;;;;;-1.67;77.45;95562.03;4996648;28;20210;-73
2021/01/19 08:58:47;;;;;;;9.50;4.60;;;;;;;-1.57;77.32;95557.31;4974566;28;20177;-76
2021/01/19 09:01:14;;;;;;;7.07;3.97;;;;;;;-1.65;77.42;95560.25;4958582;28;20237;-73
2021/01/19 09:03:39;;;;;;;12.27;4.03;;;;;;;-1.59;76.71;95556.56;4991803;28;20170;-73
2021/01/19 09:06:08;;;;;;;6.90;3.73;;;;;;;-1.59;76.35;95551.47;4974345;28;20704;-72
2021/01/19 09:08:35;;;;;;;7.67;4.03;;;;;;;-1.58;77.29;95550.59;4974578;28;20262;-72
2021/01/19 09:11:10;;;;;;;9.57;5.00;;;;;;;-1.68;77.25;95542.53;4975011;28;20189;-73
2021/01/19 09:13:40;;;;;;;7.70;4.40;;;;;;;-1.63;77.24;95540.59;4974719;28;20174;-73
2021/01/19 09:16:06;;;;;;;7.27;4.50;;;;;;;-1.60;77.02;95530.25;4974155;28;20189;-74
2021/01/19 09:18:31;;;;;;;5.67;4.80;;;;;;;-1.57;77.08;95531.84;4960277;28;20676;-74
2021/01/19 09:21:01;;;;;;;7.63;4.50;;;;;;;-1.56;77.37;95529.22;4974447;28;20217;-73
2021/01/19 09:23:35;;;;;;;6.10;4.70;;;;;;;-1.51;77.17;95517.06;4974546;28;20191;-74
2021/01/19 09:26:08;;;;;;;12.70;6.00;;;;;;;-1.50;76.77;95513.66;4974212;28;20206;-74
2021/01/19 09:28:34;;;;;;;8.30;4.83;;;;;;;-1.50;77.26;95512.84;4974384;28;20669;-73
2021/01/19 09:31:21;;;;;;;6.33;4.27;;;;;;;-1.44;77.34;95503.16;4974530;28;20178;-74
2021/01/19 09:33:48;;;;;;;9.60;4.60;;;;;;;-1.33;76.81;95501.78;4977199;28;20193;-74
2021/01/19 09:36:14;;;;;;;5.60;3.97;;;;;;;-1.34;76.98;95492.50;4977936;28;20197;-74
2021/01/19 09:38:40;;;;;;;6.67;4.40;;;;;;;-1.16;76.65;95479.66;4977488;28;20222;-74
2021/01/19 09:41:06;;;;;;;8.37;4.10;;;;;;;-1.06;75.88;95485.13;4977954;28;20224;-74
2021/01/19 09:43:32;;;;;;;9.73;3.53;;;;;;;-1.01;75.26;95487.41;4978082;28;20267;-74
2021/01/19 09:46:03;;;;;;;7.67;4.17;;;;;;;-1.09;76.24;95485.25;4977753;28;20199;-74
2021/01/19 09:48:34;;;;;;;4.93;3.07;;;;;;;-1.05;76.02;95480.84;4970900;28;20573;-74
2021/01/19 09:51:01;;;;;;;5.33;3.30;;;;;;;-1.09;75.86;95469.97;4997489;28;20214;-74
2021/01/19 09:53:29;;;;;;;5.87;3.00;;;;;;;-1.07;75.65;95467.34;5011755;28;20186;-74
2021/01/19 09:55:54;;;;;;;4.80;3.33;;;;;;;-0.99;76.10;95476.22;4999680;28;20257;-74
2021/01/19 09:58:22;;;;;;;8.37;4.00;;;;;;;-1.00;75.60;95471.22;4997291;28;20579;-74
2021/01/19 10:00:47;;;;;;;7.40;3.70;;;;;;;-0.84;75.48;95458.50;5014657;28;20181;-75
2021/01/19 10:03:16;;;;;;;5.33;3.23;;;;;;;-0.88;75.50;95448.47;4988463;28;20191;-75
2021/01/19 10:05:43;;;;;;;4.90;2.70;;;;;;;-0.68;74.47;95446.59;4990080;28;20290;-74
2021/01/19 10:08:09;;;;;;;4.90;2.70;;;;;;;-0.72;74.45;95448.47;4993794;28;20225;-74
2021/01/19 10:10:39;;;;;;;5.77;3.10;;;;;;;-0.66;74.36;95452.41;5000893;28;20670;-73
2021/01/19 10:13:05;;;;;;;5.27;3.20;;;;;;;-0.68;75.03;95456.78;4977637;28;20634;-74
2021/01/19 10:15:31;;;;;;;5.13;2.67;;;;;;;-0.66;75.13;95447.31;4977164;28;20216;-74
2021/01/19 10:17:59;;;;;;;6.43;2.77;;;;;;;-0.50;75.21;95449.88;4977433;28;20201;-75
2021/01/19 10:20:36;;;;;;;5.20;2.77;;;;;;;-0.42;74.55;95446.00;4977518;28;20251;-75
2021/01/19 10:23:02;;;;;;;5.07;2.63;;;;;;;-0.51;74.73;95450.78;4977334;28;20688;-74
2021/01/19 10:25:32;;;;;;;4.73;2.80;;;;;;;-0.39;74.10;95442.44;4978814;28;20204;-74
2021/01/19 10:28:03;;;;;;;5.90;3.10;;;;;;;-0.37;73.89;95438.91;4987184;28;20274;-75
2021/01/19 10:30:30;;;;;;;5.47;3.30;;;;;;;-0.49;74.32;95428.56;4996732;28;20218;-74
2021/01/19 10:32:56;;;;;;;6.77;3.40;;;;;;;-0.39;74.60;95425.41;5012874;28;20590;-74
2021/01/19 10:35:35;;;;;;;7.27;3.20;;;;;;;-0.27;74.02;95423.91;4996086;28;20209;-75
2021/01/19 10:38:06;;;;;;;5.00;2.90;;;;;;;-0.29;74.49;95407.84;4996406;28;20221;-75
2021/01/19 10:40:33;;;;;;;8.63;2.93;;;;;;;-0.19;74.10;95396.22;4980238;28;20179;-74
2021/01/19 10:43:07;;;;;;;4.80;2.60;;;;;;;-0.05;73.42;95398.00;4996401;28;20174;-75
2021/01/19 10:45:33;;;;;;;3.43;2.37;;;;;;;0.04;73.06;95392.38;4996113;28;20183;-76
2021/01/19 10:47:59;;;;;;;3.77;2.27;;;;;;;0.05;72.70;95383.81;4993907;28;20317;-76
2021/01/19 10:50:32;;;;;;;7.83;2.67;;;;;;;-0.10;73.16;95366.81;4997939;28;20183;-75
2021/01/19 10:53:02;;;;;;;6.23;3.20;;;;;;;-0.03;73.86;95361.25;4977288;28;20221;-75
2021/01/19 10:55:28;;;;;;;6.87;2.90;;;;;;;0.06;73.35;95366.75;4996146;28;20577;-74
2021/01/19 10:57:55;;;;;;;8.00;3.37;;;;;;;0.20;73.71;95377.00;4976886;28;20238;-75
2021/01/19 11:00:20;;;;;;;5.00;3.07;;;;;;;0.45;73.21;95376.41;4981357;28;20700;-75
2021/01/19 11:02:46;;;;;;;6.30;2.93;;;;;;;0.30;72.89;95373.00;4995662;28;20179;-74
2021/01/19 11:05:11;;;;;;;5.33;2.70;;;;;;;0.12;73.10;95369.78;4968230;28;20682;-74
2021/01/19 11:07:36;;;;;;;5.10;2.73;;;;;;;0.43;72.76;95358.56;4993998;28;20655;-74
2021/01/19 11:10:02;;;;;;;4.17;3.17;;;;;;;0.57;72.19;95345.81;4978218;28;20607;-74
2021/01/19 11:12:28;;;;;;;6.23;2.90;;;;;;;0.65;71.82;95341.97;5010863;28;20266;-74
2021/01/19 11:14:53;;;;;;;4.90;2.40;;;;;;;0.72;72.26;95356.03;4975554;28;20638;-75
2021/01/19 11:17:18;;;;;;;4.13;1.83;;;;;;;0.62;71.98;95355.78;4980522;28;20211;-75
2021/01/19 11:19:43;;;;;;;4.90;2.40;;;;;;;0.77;72.38;95346.34;4988414;28;20188;-75
2021/01/19 11:22:09;;;;;;;2.97;2.07;;;;;;;0.95;71.54;95352.06;4986657;28;20180;-75
2021/01/19 11:24:34;;;;;;;2.13;1.63;;;;;;;1.04;71.12;95346.38;4988635;28;20646;-76
2021/01/19 11:27:00;;;;;;;3.67;2.23;;;;;;;1.12;70.82;95341.63;4989717;28;20210;-75
2021/01/19 11:29:25;;;;;;;5.17;2.80;;;;;;;1.36;70.11;95360.56;4992674;28;20701;-76
2021/01/19 11:31:50;;;;;;;3.50;1.70;;;;;;;1.30;69.14;95349.88;4965996;28;20194;-75
2021/01/19 11:34:16;;;;;;;2.13;1.20;;;;;;;1.29;69.87;95343.13;5006428;28;20687;-75
2021/01/19 11:36:41;;;;;;;4.50;1.60;;;;;;;1.49;69.28;95336.75;4982307;28;20190;-75
2021/01/19 11:39:08;;;;;;;2.90;1.50;;;;;;;1.31;69.36;95342.09;4985242;28;20187;-74
2021/01/19 11:41:36;;;;;;;2.33;1.50;;;;;;;1.25;69.12;95341.69;4993815;28;20201;-74
2021/01/19 11:44:02;;;;;;;4.13;1.30;;;;;;;1.24;69.23;95334.94;4969297;28;20184;-75